sensor_id;sensor_type;location;lat;lon;timestamp;P1;P2;P0
74333;PMS5003;62753;40.394;-80.022;2023-09-30T00:01:27;14;14;
74333;PMS5003;62753;40.394;-80.022;2023-09-30T00:03:52;14;13;
74333;PMS5003;62753;40.394;-80.022;2023-09-30T00:06:18;16;15;
74333;PMS5003;62753;40.394;-80.022;2023-09-30T00:08:42;14;13;
74333;PMS5003;62753;40.394;-80.022;2023-09-30T00:11:08;14;13;
74333;PMS5003;62753;40.394;-80.022;2023-09-30T00:13:33;14;12;
74333;PMS5003;62753;40.394;-80.022;2023-09-30T00:15:58;11;11;
74333;PMS5003;62753;40.394;-80.022;2023-09-30T00:18:23;15;13;
74333;PMS5003;62753;40.394;-80.022;2023-09-30T00:20:49;14;13;
74333;PMS5003;62753;40.394;-80.022;2023-09-30T00:23:14;19;14;
74333;PMS5003;62753;40.394;-80.022;2023-09-30T00:25:40;16;15;
74333;PMS5003;62753;40.394;-80.022;2023-09-30T00:28:05;15;14;
74333;PMS5003;62753;40.394;-80.022;2023-09-30T00:30:30;18;17;
74333;PMS5003;62753;40.394;-80.022;2023-09-30T00:32:56;17;17;
74333;PMS5003;62753;40.394;-80.022;2023-09-30T00:35:21;21;19;
74333;PMS5003;62753;40.394;-80.022;2023-09-30T00:37:46;17;16;
74333;PMS5003;62753;40.394;-80.022;2023-09-30T00:40:12;16;15;
74333;PMS5003;62753;40.394;-80.022;2023-09-30T00:42:37;14;13;
74333;PMS5003;62753;40.394;-80.022;2023-09-30T00:45:02;14;13;
74333;PMS5003;62753;40.394;-80.022;2023-09-30T00:47:27;14;14;
74333;PMS5003;62753;40.394;-80.022;2023-09-30T00:49:53;15;14;
74333;PMS5003;62753;40.394;-80.022;2023-09-30T00:52:18;18;15;
74333;PMS5003;62753;40.394;-80.022;2023-09-30T00:54:43;13;13;
74333;PMS5003;62753;40.394;-80.022;2023-09-30T00:57:09;16;15;
74333;PMS5003;62753;40.394;-80.022;2023-09-30T00:59:35;20;18;
74333;PMS5003;62753;40.394;-80.022;2023-09-30T01:02:00;21;18;
74333;PMS5003;62753;40.394;-80.022;2023-09-30T01:04:26;20;17;
74333;PMS5003;62753;40.394;-80.022;2023-09-30T01:06:51;20;19;
74333;PMS5003;62753;40.394;-80.022;2023-09-30T01:09:17;19;15;
74333;PMS5003;62753;40.394;-80.022;2023-09-30T01:11:42;16;15;
74333;PMS5003;62753;40.394;-80.022;2023-09-30T01:16:32;22;17;
74333;PMS5003;62753;40.394;-80.022;2023-09-30T01:18:58;19;19;
74333;PMS5003;62753;40.394;-80.022;2023-09-30T01:21:24;15;14;
74333;PMS5003;62753;40.394;-80.022;2023-09-30T01:23:48;17;17;
74333;PMS5003;62753;40.394;-80.022;2023-09-30T01:26:14;22;19;
74333;PMS5003;62753;40.394;-80.022;2023-09-30T01:28:40;19;16;
74333;PMS5003;62753;40.394;-80.022;2023-09-30T01:31:06;21;17;
74333;PMS5003;62753;40.394;-80.022;2023-09-30T01:33:31;18;16;
74333;PMS5003;62753;40.394;-80.022;2023-09-30T01:35:57;20;19;
74333;PMS5003;62753;40.394;-80.022;2023-09-30T01:38:22;20;19;
74333;PMS5003;62753;40.394;-80.022;2023-09-30T01:40:47;23;19;
74333;PMS5003;62753;40.394;-80.022;2023-09-30T01:43:12;16;16;
74333;PMS5003;62753;40.394;-80.022;2023-09-30T01:45:38;15;14;
74333;PMS5003;62753;40.394;-80.022;2023-09-30T01:48:03;18;18;
74333;PMS5003;62753;40.394;-80.022;2023-09-30T01:50:28;19;19;
74333;PMS5003;62753;40.394;-80.022;2023-09-30T01:52:54;17;16;
74333;PMS5003;62753;40.394;-80.022;2023-09-30T01:55:19;14;12;
74333;PMS5003;62753;40.394;-80.022;2023-09-30T01:57:44;17;15;
74333;PMS5003;62753;40.394;-80.022;2023-09-30T02:00:10;14;14;
74333;PMS5003;62753;40.394;-80.022;2023-09-30T02:02:35;16;15;
74333;PMS5003;62753;40.394;-80.022;2023-09-30T02:05:01;17;17;
74333;PMS5003;62753;40.394;-80.022;2023-09-30T02:07:26;21;17;
74333;PMS5003;62753;40.394;-80.022;2023-09-30T02:09:52;16;16;
74333;PMS5003;62753;40.394;-80.022;2023-09-30T02:12:17;21;17;
74333;PMS5003;62753;40.394;-80.022;2023-09-30T02:14:43;15;14;
74333;PMS5003;62753;40.394;-80.022;2023-09-30T02:17:08;13;12;
74333;PMS5003;62753;40.394;-80.022;2023-09-30T02:19:34;12;11;
74333;PMS5003;62753;40.394;-80.022;2023-09-30T02:21:59;13;13;
74333;PMS5003;62753;40.394;-80.022;2023-09-30T02:24:24;12;12;
74333;PMS5003;62753;40.394;-80.022;2023-09-30T02:26:50;17;12;
74333;PMS5003;62753;40.394;-80.022;2023-09-30T02:29:15;14;12;
74333;PMS5003;62753;40.394;-80.022;2023-09-30T02:31:41;11;11;
74333;PMS5003;62753;40.394;-80.022;2023-09-30T02:34:06;13;13;
74333;PMS5003;62753;40.394;-80.022;2023-09-30T02:36:31;11;10;
74333;PMS5003;62753;40.394;-80.022;2023-09-30T02:38:56;10;10;
74333;PMS5003;62753;40.394;-80.022;2023-09-30T02:41:22;12;11;
74333;PMS5003;62753;40.394;-80.022;2023-09-30T02:43:47;10;9;
74333;PMS5003;62753;40.394;-80.022;2023-09-30T02:46:13;10;9;
74333;PMS5003;62753;40.394;-80.022;2023-09-30T02:48:38;9;8;
74333;PMS5003;62753;40.394;-80.022;2023-09-30T02:51:03;11;11;
74333;PMS5003;62753;40.394;-80.022;2023-09-30T02:53:29;9;8;
74333;PMS5003;62753;40.394;-80.022;2023-09-30T02:55:54;13;11;
74333;PMS5003;62753;40.394;-80.022;2023-09-30T02:58:19;11;10;
74333;PMS5003;62753;40.394;-80.022;2023-09-30T03:00:47;14;14;
74333;PMS5003;62753;40.394;-80.022;2023-09-30T03:03:10;12;10;
74333;PMS5003;62753;40.394;-80.022;2023-09-30T03:05:35;10;10;
74333;PMS5003;62753;40.394;-80.022;2023-09-30T03:08:00;10;10;
74333;PMS5003;62753;40.394;-80.022;2023-09-30T03:10:25;9;8;
74333;PMS5003;62753;40.394;-80.022;2023-09-30T03:12:50;11;9;
74333;PMS5003;62753;40.394;-80.022;2023-09-30T03:15:16;9;8;
74333;PMS5003;62753;40.394;-80.022;2023-09-30T03:17:41;10;10;
74333;PMS5003;62753;40.394;-80.022;2023-09-30T03:20:08;12;11;
74333;PMS5003;62753;40.394;-80.022;2023-09-30T03:22:32;11;11;
74333;PMS5003;62753;40.394;-80.022;2023-09-30T03:24:58;9;9;
74333;PMS5003;62753;40.394;-80.022;2023-09-30T03:27:23;14;12;
74333;PMS5003;62753;40.394;-80.022;2023-09-30T03:29:49;11;11;
74333;PMS5003;62753;40.394;-80.022;2023-09-30T03:32:14;13;13;
74333;PMS5003;62753;40.394;-80.022;2023-09-30T03:34:39;14;11;
74333;PMS5003;62753;40.394;-80.022;2023-09-30T03:37:04;10;9;
74333;PMS5003;62753;40.394;-80.022;2023-09-30T03:39:29;13;10;
74333;PMS5003;62753;40.394;-80.022;2023-09-30T03:41:55;9;9;
74333;PMS5003;62753;40.394;-80.022;2023-09-30T03:44:20;8;8;
74333;PMS5003;62753;40.394;-80.022;2023-09-30T03:46:45;9;8;
74333;PMS5003;62753;40.394;-80.022;2023-09-30T03:49:10;9;9;
74333;PMS5003;62753;40.394;-80.022;2023-09-30T03:51:36;8;8;
74333;PMS5003;62753;40.394;-80.022;2023-09-30T03:54:01;11;10;
74333;PMS5003;62753;40.394;-80.022;2023-09-30T03:56:27;9;8;
74333;PMS5003;62753;40.394;-80.022;2023-09-30T03:58:52;9;9;
74333;PMS5003;62753;40.394;-80.022;2023-09-30T04:01:18;10;9;
74333;PMS5003;62753;40.394;-80.022;2023-09-30T04:03:43;8;7;
74333;PMS5003;62753;40.394;-80.022;2023-09-30T04:06:08;8;8;
74333;PMS5003;62753;40.394;-80.022;2023-09-30T04:08:33;11;10;
74333;PMS5003;62753;40.394;-80.022;2023-09-30T04:10:59;13;8;
74333;PMS5003;62753;40.394;-80.022;2023-09-30T04:13:24;12;11;
74333;PMS5003;62753;40.394;-80.022;2023-09-30T04:15:49;11;9;
74333;PMS5003;62753;40.394;-80.022;2023-09-30T04:18:15;11;9;
74333;PMS5003;62753;40.394;-80.022;2023-09-30T04:20:40;8;7;
74333;PMS5003;62753;40.394;-80.022;2023-09-30T04:23:05;11;9;
74333;PMS5003;62753;40.394;-80.022;2023-09-30T04:25:31;9;9;
74333;PMS5003;62753;40.394;-80.022;2023-09-30T04:27:56;9;8;
74333;PMS5003;62753;40.394;-80.022;2023-09-30T04:30:22;9;9;
74333;PMS5003;62753;40.394;-80.022;2023-09-30T04:32:46;13;9;
74333;PMS5003;62753;40.394;-80.022;2023-09-30T04:35:12;9;8;
74333;PMS5003;62753;40.394;-80.022;2023-09-30T04:37:37;9;9;
74333;PMS5003;62753;40.394;-80.022;2023-09-30T04:40:03;9;8;
74333;PMS5003;62753;40.394;-80.022;2023-09-30T04:42:27;11;10;
74333;PMS5003;62753;40.394;-80.022;2023-09-30T04:44:53;11;10;
74333;PMS5003;62753;40.394;-80.022;2023-09-30T04:47:18;8;8;
74333;PMS5003;62753;40.394;-80.022;2023-09-30T04:49:43;9;9;
74333;PMS5003;62753;40.394;-80.022;2023-09-30T04:52:08;10;9;
74333;PMS5003;62753;40.394;-80.022;2023-09-30T04:54:33;10;10;
74333;PMS5003;62753;40.394;-80.022;2023-09-30T04:56:59;12;12;
74333;PMS5003;62753;40.394;-80.022;2023-09-30T04:59:24;13;8;
74333;PMS5003;62753;40.394;-80.022;2023-09-30T05:01:50;12;12;
74333;PMS5003;62753;40.394;-80.022;2023-09-30T05:04:16;14;11;
74333;PMS5003;62753;40.394;-80.022;2023-09-30T05:06:41;11;11;
74333;PMS5003;62753;40.394;-80.022;2023-09-30T05:09:06;12;10;
74333;PMS5003;62753;40.394;-80.022;2023-09-30T05:11:31;9;8;
74333;PMS5003;62753;40.394;-80.022;2023-09-30T05:13:57;11;10;
74333;PMS5003;62753;40.394;-80.022;2023-09-30T05:16:22;10;9;
74333;PMS5003;62753;40.394;-80.022;2023-09-30T05:18:48;9;9;
74333;PMS5003;62753;40.394;-80.022;2023-09-30T05:21:13;14;10;
74333;PMS5003;62753;40.394;-80.022;2023-09-30T05:23:40;9;8;
74333;PMS5003;62753;40.394;-80.022;2023-09-30T05:26:04;13;12;
74333;PMS5003;62753;40.394;-80.022;2023-09-30T05:28:30;13;11;
74333;PMS5003;62753;40.394;-80.022;2023-09-30T05:30:55;9;9;
74333;PMS5003;62753;40.394;-80.022;2023-09-30T05:33:21;12;11;
74333;PMS5003;62753;40.394;-80.022;2023-09-30T05:35:47;16;13;
74333;PMS5003;62753;40.394;-80.022;2023-09-30T05:38:13;11;11;
74333;PMS5003;62753;40.394;-80.022;2023-09-30T05:40:38;13;11;
74333;PMS5003;62753;40.394;-80.022;2023-09-30T05:43:03;13;13;
74333;PMS5003;62753;40.394;-80.022;2023-09-30T05:45:30;12;12;
74333;PMS5003;62753;40.394;-80.022;2023-09-30T05:47:54;11;11;
74333;PMS5003;62753;40.394;-80.022;2023-09-30T05:50:20;10;9;
74333;PMS5003;62753;40.394;-80.022;2023-09-30T05:52:44;14;11;
74333;PMS5003;62753;40.394;-80.022;2023-09-30T05:55:10;11;11;
74333;PMS5003;62753;40.394;-80.022;2023-09-30T05:57:36;12;11;
74333;PMS5003;62753;40.394;-80.022;2023-09-30T06:00:01;10;8;
74333;PMS5003;62753;40.394;-80.022;2023-09-30T06:02:26;11;10;
74333;PMS5003;62753;40.394;-80.022;2023-09-30T06:04:52;10;10;
74333;PMS5003;62753;40.394;-80.022;2023-09-30T06:07:17;7;7;
74333;PMS5003;62753;40.394;-80.022;2023-09-30T06:09:42;10;9;
74333;PMS5003;62753;40.394;-80.022;2023-09-30T06:12:07;10;9;
74333;PMS5003;62753;40.394;-80.022;2023-09-30T06:14:33;9;9;
74333;PMS5003;62753;40.394;-80.022;2023-09-30T06:16:58;9;9;
74333;PMS5003;62753;40.394;-80.022;2023-09-30T06:19:23;10;10;
74333;PMS5003;62753;40.394;-80.022;2023-09-30T06:21:48;11;10;
74333;PMS5003;62753;40.394;-80.022;2023-09-30T06:24:14;11;9;
74333;PMS5003;62753;40.394;-80.022;2023-09-30T06:26:39;10;10;
74333;PMS5003;62753;40.394;-80.022;2023-09-30T06:29:04;12;12;
74333;PMS5003;62753;40.394;-80.022;2023-09-30T06:31:29;10;10;
74333;PMS5003;62753;40.394;-80.022;2023-09-30T06:33:55;12;11;
74333;PMS5003;62753;40.394;-80.022;2023-09-30T06:36:21;11;11;
74333;PMS5003;62753;40.394;-80.022;2023-09-30T06:38:46;9;8;
74333;PMS5003;62753;40.394;-80.022;2023-09-30T06:41:15;15;14;
74333;PMS5003;62753;40.394;-80.022;2023-09-30T06:43:36;11;10;
74333;PMS5003;62753;40.394;-80.022;2023-09-30T06:46:05;10;10;
74333;PMS5003;62753;40.394;-80.022;2023-09-30T06:48:27;10;9;
74333;PMS5003;62753;40.394;-80.022;2023-09-30T06:50:53;8;8;
74333;PMS5003;62753;40.394;-80.022;2023-09-30T06:53:18;9;9;
74333;PMS5003;62753;40.394;-80.022;2023-09-30T06:55:44;15;13;
74333;PMS5003;62753;40.394;-80.022;2023-09-30T06:58:09;10;10;
74333;PMS5003;62753;40.394;-80.022;2023-09-30T07:00:34;8;8;
74333;PMS5003;62753;40.394;-80.022;2023-09-30T07:02:59;10;9;
74333;PMS5003;62753;40.394;-80.022;2023-09-30T07:05:24;10;10;
74333;PMS5003;62753;40.394;-80.022;2023-09-30T07:07:49;11;10;
74333;PMS5003;62753;40.394;-80.022;2023-09-30T07:10:15;10;10;
74333;PMS5003;62753;40.394;-80.022;2023-09-30T07:12:40;11;10;
74333;PMS5003;62753;40.394;-80.022;2023-09-30T07:15:06;11;11;
74333;PMS5003;62753;40.394;-80.022;2023-09-30T07:17:31;10;10;
74333;PMS5003;62753;40.394;-80.022;2023-09-30T07:19:56;8;8;
74333;PMS5003;62753;40.394;-80.022;2023-09-30T07:22:21;10;10;
74333;PMS5003;62753;40.394;-80.022;2023-09-30T07:24:47;11;11;
74333;PMS5003;62753;40.394;-80.022;2023-09-30T07:27:12;12;12;
74333;PMS5003;62753;40.394;-80.022;2023-09-30T07:29:37;12;11;
74333;PMS5003;62753;40.394;-80.022;2023-09-30T07:32:02;10;9;
74333;PMS5003;62753;40.394;-80.022;2023-09-30T07:34:28;15;10;
74333;PMS5003;62753;40.394;-80.022;2023-09-30T07:36:54;10;9;
74333;PMS5003;62753;40.394;-80.022;2023-09-30T07:39:19;13;12;
74333;PMS5003;62753;40.394;-80.022;2023-09-30T07:41:44;12;11;
74333;PMS5003;62753;40.394;-80.022;2023-09-30T07:44:09;10;10;
74333;PMS5003;62753;40.394;-80.022;2023-09-30T07:46:35;10;10;
74333;PMS5003;62753;40.394;-80.022;2023-09-30T07:49:00;11;11;
74333;PMS5003;62753;40.394;-80.022;2023-09-30T07:51:26;12;12;
74333;PMS5003;62753;40.394;-80.022;2023-09-30T07:53:51;10;9;
74333;PMS5003;62753;40.394;-80.022;2023-09-30T07:56:16;12;11;
74333;PMS5003;62753;40.394;-80.022;2023-09-30T07:58:41;13;12;
74333;PMS5003;62753;40.394;-80.022;2023-09-30T08:01:08;20;13;
74333;PMS5003;62753;40.394;-80.022;2023-09-30T08:03:32;13;12;
74333;PMS5003;62753;40.394;-80.022;2023-09-30T08:05:58;11;9;
74333;PMS5003;62753;40.394;-80.022;2023-09-30T08:08:23;13;13;
74333;PMS5003;62753;40.394;-80.022;2023-09-30T08:10:49;15;14;
74333;PMS5003;62753;40.394;-80.022;2023-09-30T08:13:14;12;12;
74333;PMS5003;62753;40.394;-80.022;2023-09-30T08:15:40;13;13;
74333;PMS5003;62753;40.394;-80.022;2023-09-30T08:18:05;13;12;
74333;PMS5003;62753;40.394;-80.022;2023-09-30T08:20:31;15;12;
74333;PMS5003;62753;40.394;-80.022;2023-09-30T08:22:56;13;13;
74333;PMS5003;62753;40.394;-80.022;2023-09-30T08:25:22;17;14;
74333;PMS5003;62753;40.394;-80.022;2023-09-30T08:27:48;14;12;
74333;PMS5003;62753;40.394;-80.022;2023-09-30T08:30:13;12;11;
74333;PMS5003;62753;40.394;-80.022;2023-09-30T08:32:39;15;14;
74333;PMS5003;62753;40.394;-80.022;2023-09-30T08:35:05;14;13;
74333;PMS5003;62753;40.394;-80.022;2023-09-30T08:37:30;15;15;
74333;PMS5003;62753;40.394;-80.022;2023-09-30T08:39:56;16;15;
74333;PMS5003;62753;40.394;-80.022;2023-09-30T08:42:21;13;12;
74333;PMS5003;62753;40.394;-80.022;2023-09-30T08:44:46;16;14;
74333;PMS5003;62753;40.394;-80.022;2023-09-30T08:47:12;16;14;
74333;PMS5003;62753;40.394;-80.022;2023-09-30T08:49:37;15;14;
74333;PMS5003;62753;40.394;-80.022;2023-09-30T08:52:02;14;14;
74333;PMS5003;62753;40.394;-80.022;2023-09-30T08:54:27;14;13;
74333;PMS5003;62753;40.394;-80.022;2023-09-30T08:56:53;14;13;
74333;PMS5003;62753;40.394;-80.022;2023-09-30T08:59:19;18;16;
74333;PMS5003;62753;40.394;-80.022;2023-09-30T09:01:44;12;12;
74333;PMS5003;62753;40.394;-80.022;2023-09-30T09:04:09;15;14;
74333;PMS5003;62753;40.394;-80.022;2023-09-30T09:06:34;13;13;
74333;PMS5003;62753;40.394;-80.022;2023-09-30T09:11:24;14;14;
74333;PMS5003;62753;40.394;-80.022;2023-09-30T09:13:50;20;14;
74333;PMS5003;62753;40.394;-80.022;2023-09-30T09:16:15;17;16;
74333;PMS5003;62753;40.394;-80.022;2023-09-30T09:18:40;15;13;
74333;PMS5003;62753;40.394;-80.022;2023-09-30T09:21:07;12;12;
74333;PMS5003;62753;40.394;-80.022;2023-09-30T09:23:32;13;13;
74333;PMS5003;62753;40.394;-80.022;2023-09-30T09:25:57;11;11;
74333;PMS5003;62753;40.394;-80.022;2023-09-30T09:28:23;12;11;
74333;PMS5003;62753;40.394;-80.022;2023-09-30T09:30:47;14;13;
74333;PMS5003;62753;40.394;-80.022;2023-09-30T09:33:13;16;13;
74333;PMS5003;62753;40.394;-80.022;2023-09-30T09:35:38;14;14;
74333;PMS5003;62753;40.394;-80.022;2023-09-30T09:38:04;11;11;
74333;PMS5003;62753;40.394;-80.022;2023-09-30T09:40:30;10;10;
74333;PMS5003;62753;40.394;-80.022;2023-09-30T09:42:55;12;12;
74333;PMS5003;62753;40.394;-80.022;2023-09-30T09:45:21;14;13;
74333;PMS5003;62753;40.394;-80.022;2023-09-30T09:47:46;13;12;
74333;PMS5003;62753;40.394;-80.022;2023-09-30T09:50:11;17;15;
74333;PMS5003;62753;40.394;-80.022;2023-09-30T09:52:36;12;12;
74333;PMS5003;62753;40.394;-80.022;2023-09-30T09:55:02;13;13;
74333;PMS5003;62753;40.394;-80.022;2023-09-30T09:57:27;14;13;
74333;PMS5003;62753;40.394;-80.022;2023-09-30T09:59:53;14;12;
74333;PMS5003;62753;40.394;-80.022;2023-09-30T10:02:18;11;10;
74333;PMS5003;62753;40.394;-80.022;2023-09-30T10:04:44;12;12;
74333;PMS5003;62753;40.394;-80.022;2023-09-30T10:07:10;11;10;
74333;PMS5003;62753;40.394;-80.022;2023-09-30T10:09:34;14;13;
74333;PMS5003;62753;40.394;-80.022;2023-09-30T10:12:00;12;11;
74333;PMS5003;62753;40.394;-80.022;2023-09-30T10:16:50;11;11;
74333;PMS5003;62753;40.394;-80.022;2023-09-30T10:19:16;12;11;
74333;PMS5003;62753;40.394;-80.022;2023-09-30T10:26:31;12;12;
74333;PMS5003;62753;40.394;-80.022;2023-09-30T10:28:58;19;14;
74333;PMS5003;62753;40.394;-80.022;2023-09-30T10:31:23;14;12;
74333;PMS5003;62753;40.394;-80.022;2023-09-30T10:36:14;12;12;
74333;PMS5003;62753;40.394;-80.022;2023-09-30T10:38:39;15;15;
74333;PMS5003;62753;40.394;-80.022;2023-09-30T10:41:04;14;13;
74333;PMS5003;62753;40.394;-80.022;2023-09-30T10:43:29;13;12;
74333;PMS5003;62753;40.394;-80.022;2023-09-30T10:45:55;16;15;
74333;PMS5003;62753;40.394;-80.022;2023-09-30T10:50:49;12;11;
74333;PMS5003;62753;40.394;-80.022;2023-09-30T10:53:11;12;11;
74333;PMS5003;62753;40.394;-80.022;2023-09-30T10:55:37;12;10;
74333;PMS5003;62753;40.394;-80.022;2023-09-30T10:58:02;12;12;
74333;PMS5003;62753;40.394;-80.022;2023-09-30T11:00:27;12;12;
74333;PMS5003;62753;40.394;-80.022;2023-09-30T11:02:53;14;13;
74333;PMS5003;62753;40.394;-80.022;2023-09-30T11:05:18;11;11;
74333;PMS5003;62753;40.394;-80.022;2023-09-30T11:07:44;15;13;
74333;PMS5003;62753;40.394;-80.022;2023-09-30T11:10:09;11;11;
74333;PMS5003;62753;40.394;-80.022;2023-09-30T11:12:34;13;11;
74333;PMS5003;62753;40.394;-80.022;2023-09-30T11:15:00;17;14;
74333;PMS5003;62753;40.394;-80.022;2023-09-30T11:17:25;12;11;
74333;PMS5003;62753;40.394;-80.022;2023-09-30T11:19:50;15;14;
74333;PMS5003;62753;40.394;-80.022;2023-09-30T11:22:16;14;13;
74333;PMS5003;62753;40.394;-80.022;2023-09-30T11:24:42;13;13;
74333;PMS5003;62753;40.394;-80.022;2023-09-30T11:27:07;16;15;
74333;PMS5003;62753;40.394;-80.022;2023-09-30T11:29:33;13;11;
74333;PMS5003;62753;40.394;-80.022;2023-09-30T11:31:58;15;13;
74333;PMS5003;62753;40.394;-80.022;2023-09-30T11:36:49;14;13;
74333;PMS5003;62753;40.394;-80.022;2023-09-30T11:41:39;13;12;
74333;PMS5003;62753;40.394;-80.022;2023-09-30T11:44:06;15;13;
74333;PMS5003;62753;40.394;-80.022;2023-09-30T11:46:31;11;11;
74333;PMS5003;62753;40.394;-80.022;2023-09-30T11:48:57;16;15;
74333;PMS5003;62753;40.394;-80.022;2023-09-30T11:51:22;15;13;
74333;PMS5003;62753;40.394;-80.022;2023-09-30T11:53:47;10;10;
74333;PMS5003;62753;40.394;-80.022;2023-09-30T11:56:13;14;13;
74333;PMS5003;62753;40.394;-80.022;2023-09-30T11:58:38;14;14;
74333;PMS5003;62753;40.394;-80.022;2023-09-30T12:01:04;15;14;
74333;PMS5003;62753;40.394;-80.022;2023-09-30T12:03:29;16;13;
74333;PMS5003;62753;40.394;-80.022;2023-09-30T12:05:55;11;10;
74333;PMS5003;62753;40.394;-80.022;2023-09-30T12:08:20;15;13;
74333;PMS5003;62753;40.394;-80.022;2023-09-30T12:10:45;14;14;
74333;PMS5003;62753;40.394;-80.022;2023-09-30T12:13:11;16;16;
74333;PMS5003;62753;40.394;-80.022;2023-09-30T12:15:36;15;14;
74333;PMS5003;62753;40.394;-80.022;2023-09-30T12:18:01;11;11;
74333;PMS5003;62753;40.394;-80.022;2023-09-30T12:20:27;13;11;
74333;PMS5003;62753;40.394;-80.022;2023-09-30T12:22:52;13;13;
74333;PMS5003;62753;40.394;-80.022;2023-09-30T12:25:17;15;13;
74333;PMS5003;62753;40.394;-80.022;2023-09-30T12:27:43;14;13;
74333;PMS5003;62753;40.394;-80.022;2023-09-30T12:30:08;15;14;
74333;PMS5003;62753;40.394;-80.022;2023-09-30T12:32:34;10;9;
74333;PMS5003;62753;40.394;-80.022;2023-09-30T12:35:00;14;13;
74333;PMS5003;62753;40.394;-80.022;2023-09-30T12:37:25;14;13;
74333;PMS5003;62753;40.394;-80.022;2023-09-30T12:39:51;12;12;
74333;PMS5003;62753;40.394;-80.022;2023-09-30T12:42:17;14;14;
74333;PMS5003;62753;40.394;-80.022;2023-09-30T12:44:42;9;9;
74333;PMS5003;62753;40.394;-80.022;2023-09-30T12:47:07;13;13;
74333;PMS5003;62753;40.394;-80.022;2023-09-30T12:49:32;20;18;
74333;PMS5003;62753;40.394;-80.022;2023-09-30T12:51:59;14;13;
74333;PMS5003;62753;40.394;-80.022;2023-09-30T12:54:24;17;13;
74333;PMS5003;62753;40.394;-80.022;2023-09-30T12:56:50;13;10;
74333;PMS5003;62753;40.394;-80.022;2023-09-30T12:59:16;14;13;
74333;PMS5003;62753;40.394;-80.022;2023-09-30T13:01:42;12;12;
74333;PMS5003;62753;40.394;-80.022;2023-09-30T13:04:07;9;9;
74333;PMS5003;62753;40.394;-80.022;2023-09-30T13:06:32;17;14;
74333;PMS5003;62753;40.394;-80.022;2023-09-30T13:08:58;12;11;
74333;PMS5003;62753;40.394;-80.022;2023-09-30T13:11:23;9;9;
74333;PMS5003;62753;40.394;-80.022;2023-09-30T13:13:49;11;11;
74333;PMS5003;62753;40.394;-80.022;2023-09-30T13:16:14;10;9;
74333;PMS5003;62753;40.394;-80.022;2023-09-30T13:18:40;11;10;
74333;PMS5003;62753;40.394;-80.022;2023-09-30T13:21:05;12;10;
74333;PMS5003;62753;40.394;-80.022;2023-09-30T13:23:31;9;9;
74333;PMS5003;62753;40.394;-80.022;2023-09-30T13:25:56;10;9;
74333;PMS5003;62753;40.394;-80.022;2023-09-30T13:28:21;7;7;
74333;PMS5003;62753;40.394;-80.022;2023-09-30T13:30:47;7;7;
74333;PMS5003;62753;40.394;-80.022;2023-09-30T13:33:12;9;6;
74333;PMS5003;62753;40.394;-80.022;2023-09-30T13:35:37;11;8;
74333;PMS5003;62753;40.394;-80.022;2023-09-30T13:38:03;11;7;
74333;PMS5003;62753;40.394;-80.022;2023-09-30T13:40:29;8;8;
74333;PMS5003;62753;40.394;-80.022;2023-09-30T13:42:54;6;6;
74333;PMS5003;62753;40.394;-80.022;2023-09-30T13:45:19;5;5;
74333;PMS5003;62753;40.394;-80.022;2023-09-30T13:47:44;8;8;
74333;PMS5003;62753;40.394;-80.022;2023-09-30T13:50:10;14;7;
74333;PMS5003;62753;40.394;-80.022;2023-09-30T13:52:34;5;4;
74333;PMS5003;62753;40.394;-80.022;2023-09-30T13:55:00;8;7;
74333;PMS5003;62753;40.394;-80.022;2023-09-30T13:57:25;5;5;
74333;PMS5003;62753;40.394;-80.022;2023-09-30T13:59:50;3;3;
74333;PMS5003;62753;40.394;-80.022;2023-09-30T14:02:15;5;4;
74333;PMS5003;62753;40.394;-80.022;2023-09-30T14:04:41;7;7;
74333;PMS5003;62753;40.394;-80.022;2023-09-30T14:07:06;4;4;
74333;PMS5003;62753;40.394;-80.022;2023-09-30T14:09:31;5;4;
74333;PMS5003;62753;40.394;-80.022;2023-09-30T14:11:57;5;5;
74333;PMS5003;62753;40.394;-80.022;2023-09-30T14:14:22;3;3;
74333;PMS5003;62753;40.394;-80.022;2023-09-30T14:16:47;6;5;
74333;PMS5003;62753;40.394;-80.022;2023-09-30T14:19:12;5;4;
74333;PMS5003;62753;40.394;-80.022;2023-09-30T14:21:37;8;7;
74333;PMS5003;62753;40.394;-80.022;2023-09-30T14:24:02;6;6;
74333;PMS5003;62753;40.394;-80.022;2023-09-30T14:26:27;5;5;
74333;PMS5003;62753;40.394;-80.022;2023-09-30T14:28:52;6;6;
74333;PMS5003;62753;40.394;-80.022;2023-09-30T14:31:18;5;5;
74333;PMS5003;62753;40.394;-80.022;2023-09-30T14:33:43;5;3;
74333;PMS5003;62753;40.394;-80.022;2023-09-30T14:36:09;5;4;
74333;PMS5003;62753;40.394;-80.022;2023-09-30T14:38:34;5;5;
74333;PMS5003;62753;40.394;-80.022;2023-09-30T14:40:59;6;5;
74333;PMS5003;62753;40.394;-80.022;2023-09-30T14:43:24;5;4;
74333;PMS5003;62753;40.394;-80.022;2023-09-30T14:45:49;4;3;
74333;PMS5003;62753;40.394;-80.022;2023-09-30T14:48:15;6;6;
74333;PMS5003;62753;40.394;-80.022;2023-09-30T14:53:05;4;4;
74333;PMS5003;62753;40.394;-80.022;2023-09-30T14:55:31;5;4;
74333;PMS5003;62753;40.394;-80.022;2023-09-30T14:57:55;5;4;
74333;PMS5003;62753;40.394;-80.022;2023-09-30T15:00:20;4;4;
74333;PMS5003;62753;40.394;-80.022;2023-09-30T15:02:46;3;2;
74333;PMS5003;62753;40.394;-80.022;2023-09-30T15:05:11;3;3;
74333;PMS5003;62753;40.394;-80.022;2023-09-30T15:07:36;4;3;
74333;PMS5003;62753;40.394;-80.022;2023-09-30T15:10:01;4;3;
74333;PMS5003;62753;40.394;-80.022;2023-09-30T15:12:26;2;2;
74333;PMS5003;62753;40.394;-80.022;2023-09-30T15:14:52;4;4;
74333;PMS5003;62753;40.394;-80.022;2023-09-30T15:17:17;3;1;
74333;PMS5003;62753;40.394;-80.022;2023-09-30T15:19:42;3;3;
74333;PMS5003;62753;40.394;-80.022;2023-09-30T15:22:07;3;3;
74333;PMS5003;62753;40.394;-80.022;2023-09-30T15:24:32;3;3;
74333;PMS5003;62753;40.394;-80.022;2023-09-30T15:26:58;5;5;
74333;PMS5003;62753;40.394;-80.022;2023-09-30T15:29:22;4;4;
74333;PMS5003;62753;40.394;-80.022;2023-09-30T15:31:48;4;4;
74333;PMS5003;62753;40.394;-80.022;2023-09-30T15:34:13;4;3;
74333;PMS5003;62753;40.394;-80.022;2023-09-30T15:36:38;3;3;
74333;PMS5003;62753;40.394;-80.022;2023-09-30T15:39:03;4;4;
74333;PMS5003;62753;40.394;-80.022;2023-09-30T15:41:28;4;4;
74333;PMS5003;62753;40.394;-80.022;2023-09-30T15:43:54;4;3;
74333;PMS5003;62753;40.394;-80.022;2023-09-30T15:46:19;4;4;
74333;PMS5003;62753;40.394;-80.022;2023-09-30T15:48:44;5;4;
74333;PMS5003;62753;40.394;-80.022;2023-09-30T15:51:09;5;4;
74333;PMS5003;62753;40.394;-80.022;2023-09-30T15:53:34;2;2;
74333;PMS5003;62753;40.394;-80.022;2023-09-30T15:55:59;5;4;
74333;PMS5003;62753;40.394;-80.022;2023-09-30T15:58:24;5;5;
74333;PMS5003;62753;40.394;-80.022;2023-09-30T16:00:49;4;4;
74333;PMS5003;62753;40.394;-80.022;2023-09-30T16:03:14;5;4;
74333;PMS5003;62753;40.394;-80.022;2023-09-30T16:05:40;7;7;